createdAt,value
2022-10-03T00:00:26.984Z,13.10
2022-10-03T00:03:35.739Z,13.07
2022-10-03T00:06:11.079Z,13.17
2022-10-03T00:09:10.786Z,13.12
2022-10-03T00:12:00.696Z,13.06
2022-10-03T00:14:53.099Z,13.16
2022-10-03T00:17:43.232Z,13.20
2022-10-03T00:20:36.647Z,13.17
2022-10-03T00:23:17.254Z,12.89
2022-10-03T00:25:49.448Z,12.80
2022-10-03T00:28:35.071Z,12.80
2022-10-03T00:31:01.801Z,12.73
2022-10-03T00:33:56.217Z,12.65
2022-10-03T00:36:26.104Z,12.53
2022-10-03T00:39:22.473Z,12.56
2022-10-03T00:42:38.035Z,12.48
2022-10-03T00:45:20.131Z,12.49
2022-10-03T00:48:19.128Z,12.42
2022-10-03T00:51:12.066Z,12.31
2022-10-03T00:53:51.018Z,12.30
2022-10-03T00:56:38.512Z,12.38
2022-10-03T00:59:16.749Z,12.37
2022-10-03T01:01:49.084Z,12.38
2022-10-03T01:04:32.344Z,12.41
2022-10-03T01:07:19.750Z,12.42
2022-10-03T01:10:09.532Z,12.44
2022-10-03T01:13:13.999Z,12.46
2022-10-03T01:15:55.807Z,12.47
2022-10-03T01:18:43.843Z,12.53
2022-10-03T01:21:26.274Z,12.52
2022-10-03T01:24:16.100Z,12.47
2022-10-03T01:27:06.515Z,12.59
2022-10-03T01:30:10.813Z,12.45
2022-10-03T01:32:53.008Z,12.35
2022-10-03T01:35:40.260Z,12.33
2022-10-03T01:38:20.781Z,12.36
2022-10-03T01:41:11.005Z,12.34
2022-10-03T01:44:03.988Z,12.44
2022-10-03T01:46:38.944Z,12.41
2022-10-03T01:49:19.847Z,12.44
2022-10-03T01:52:00.183Z,12.40
2022-10-03T01:54:34.218Z,12.38
2022-10-03T01:57:03.277Z,12.38
2022-10-03T01:59:57.312Z,12.34
2022-10-03T02:02:51.458Z,12.23
2022-10-03T02:05:35.578Z,12.22
2022-10-03T02:08:11.572Z,12.03
2022-10-03T02:10:50.867Z,12.13
2022-10-03T02:13:29.046Z,12.03
2022-10-03T02:16:05.859Z,12.00
2022-10-03T02:18:45.325Z,12.08
2022-10-03T02:21:23.910Z,12.10
2022-10-03T02:24:10.230Z,12.10
2022-10-03T02:27:14.809Z,12.08
2022-10-03T02:30:02.505Z,12.01
2022-10-03T02:32:41.418Z,12.12
2022-10-03T02:35:45.742Z,12.10
2022-10-03T02:38:44.042Z,11.99
2022-10-03T02:41:39.953Z,11.88
2022-10-03T02:44:36.958Z,11.88
2022-10-03T02:47:12.530Z,11.87
2022-10-03T02:50:10.479Z,11.88
2022-10-03T02:52:55.887Z,11.85
2022-10-03T02:55:50.665Z,11.79
2022-10-03T02:58:51.653Z,11.81
2022-10-03T03:01:40.050Z,11.87
2022-10-03T03:04:48.646Z,11.90
2022-10-03T03:07:15.254Z,11.94
2022-10-03T03:09:45.019Z,11.98
2022-10-03T03:12:51.558Z,11.99
2022-10-03T03:15:37.214Z,12.06
2022-10-03T03:18:26.568Z,12.13
2022-10-03T03:21:20.717Z,12.06
2022-10-03T03:24:24.742Z,12.13
2022-10-03T03:27:24.668Z,12.22
2022-10-03T03:30:15.729Z,12.17
2022-10-03T03:33:07.918Z,12.22
2022-10-03T03:36:12.009Z,12.27
2022-10-03T03:38:46.841Z,12.26
2022-10-03T03:41:19.616Z,12.27
2022-10-03T03:44:25.568Z,12.25
2022-10-03T03:47:23.250Z,12.29
2022-10-03T03:50:23.061Z,12.37
2022-10-03T03:53:11.666Z,12.35
2022-10-03T03:55:54.909Z,12.33
2022-10-03T03:58:45.197Z,12.35
2022-10-03T04:01:49.399Z,12.38
2022-10-03T04:04:44.198Z,12.33
2022-10-03T04:07:49.264Z,12.34
2022-10-03T04:10:53.879Z,12.37
2022-10-03T04:13:49.947Z,12.37
2022-10-03T04:16:54.430Z,12.38
2022-10-03T04:19:44.359Z,12.29
2022-10-03T04:22:32.673Z,12.36
2022-10-03T04:25:17.947Z,12.32
2022-10-03T04:28:00.135Z,12.25
2022-10-03T04:30:46.283Z,12.27
2022-10-03T04:33:25.554Z,12.17
2022-10-03T04:36:11.122Z,12.23
2022-10-03T04:39:25.960Z,12.21
2022-10-03T04:41:53.081Z,12.18
2022-10-03T04:44:38.503Z,12.18
2022-10-03T04:47:17.962Z,12.22
2022-10-03T04:49:52.388Z,12.28
2022-10-03T04:52:37.110Z,12.27
2022-10-03T04:55:11.041Z,12.15
2022-10-03T04:57:45.227Z,12.23
2022-10-03T05:00:30.016Z,12.26
2022-10-03T05:03:22.355Z,12.20
2022-10-03T05:06:06.101Z,12.17
2022-10-03T05:08:49.777Z,12.21
2022-10-03T05:11:43.352Z,12.25
2022-10-03T05:14:13.706Z,12.25
2022-10-03T05:16:53.428Z,12.14
2022-10-03T05:19:38.900Z,12.15
2022-10-03T05:22:23.735Z,12.15
2022-10-03T05:25:03.301Z,12.21
2022-10-03T05:27:47.719Z,12.21
2022-10-03T05:30:35.444Z,12.14
2022-10-03T05:33:08.949Z,12.12
2022-10-03T05:36:01.475Z,12.06
2022-10-03T05:38:34.116Z,12.02
2022-10-03T05:41:21.607Z,12.13
2022-10-03T05:44:01.419Z,12.10
2022-10-03T05:47:02.129Z,12.05
2022-10-03T05:49:51.316Z,11.99
2022-10-03T05:52:39.086Z,11.96
2022-10-03T05:55:29.133Z,12.01
2022-10-03T05:58:17.960Z,12.11
2022-10-03T06:00:50.147Z,12.18
2022-10-03T06:03:35.587Z,12.27
2022-10-03T06:06:27.769Z,12.37
2022-10-03T06:09:18.866Z,12.41
2022-10-03T06:12:01.208Z,12.49
2022-10-03T06:14:43.501Z,12.45
2022-10-03T06:17:42.829Z,12.50
2022-10-03T06:20:55.689Z,12.38
2022-10-03T06:23:47.471Z,12.56
2022-10-03T06:26:45.312Z,12.66
2022-10-03T06:29:57.320Z,12.74
2022-10-03T06:32:46.950Z,12.85
2022-10-03T06:35:52.935Z,12.84
2022-10-03T06:38:31.536Z,13.17
2022-10-03T06:41:22.970Z,13.29
2022-10-03T06:44:16.527Z,13.16
2022-10-03T06:46:52.078Z,13.09
2022-10-03T06:49:57.775Z,13.16
2022-10-03T06:52:36.357Z,13.32
2022-10-03T06:55:37.087Z,13.34
2022-10-03T06:58:37.617Z,13.27
2022-10-03T07:01:33.500Z,13.27
2022-10-03T07:04:35.728Z,13.27
2022-10-03T07:07:16.280Z,13.34
2022-10-03T07:09:49.304Z,13.41
2022-10-03T07:12:21.855Z,13.65
2022-10-03T07:15:17.779Z,13.71
2022-10-03T07:17:59.389Z,13.81
2022-10-03T07:20:57.328Z,13.89
2022-10-03T07:24:06.185Z,13.96
2022-10-03T07:27:12.120Z,14.19
2022-10-03T07:30:11.266Z,14.35
2022-10-03T07:33:03.267Z,14.40
2022-10-03T07:36:08.599Z,14.38
2022-10-03T07:38:59.568Z,14.55
2022-10-03T07:41:38.748Z,14.32
2022-10-03T07:44:24.211Z,14.39
2022-10-03T07:47:12.010Z,14.47
2022-10-03T07:49:47.862Z,14.50
2022-10-03T07:52:43.679Z,14.38
2022-10-03T07:55:13.352Z,14.52
2022-10-03T07:58:12.982Z,14.67
2022-10-03T08:00:58.096Z,14.98
2022-10-03T08:03:43.568Z,15.14
2022-10-03T08:06:26.692Z,14.93
2022-10-03T08:09:15.273Z,14.73
2022-10-03T08:12:09.798Z,14.63
2022-10-03T08:14:48.924Z,14.55
2022-10-03T08:17:53.727Z,14.64
2022-10-03T08:20:32.594Z,14.63
2022-10-03T08:23:31.937Z,14.43
2022-10-03T08:26:04.483Z,14.55
2022-10-03T08:28:59.748Z,14.68
2022-10-03T08:31:44.950Z,14.59
2022-10-03T08:34:48.872Z,14.99
2022-10-03T08:37:34.316Z,15.27
2022-10-03T08:40:19.660Z,14.57
2022-10-03T08:43:19.083Z,14.58
2022-10-03T08:46:02.473Z,14.37
2022-10-03T08:48:53.624Z,14.24
2022-10-03T08:51:59.645Z,14.11
2022-10-03T08:54:29.423Z,14.12
2022-10-03T08:57:22.305Z,14.04
2022-10-03T08:59:55.238Z,14.06
2022-10-03T09:02:31.275Z,14.23
2022-10-03T09:05:01.326Z,14.86
2022-10-03T09:07:52.443Z,16.12
2022-10-03T09:10:35.205Z,15.22
2022-10-03T09:13:23.104Z,15.17
2022-10-03T09:16:13.750Z,15.06
2022-10-03T09:19:01.096Z,14.69
2022-10-03T09:21:50.288Z,14.52
2022-10-03T09:24:55.669Z,14.23
2022-10-03T09:27:38.540Z,14.95
2022-10-03T09:30:43.892Z,15.67
2022-10-03T09:33:23.223Z,15.80
2022-10-03T09:35:59.290Z,15.83
2022-10-03T09:38:50.524Z,16.25
2022-10-03T09:41:42.868Z,15.32
2022-10-03T09:44:17.877Z,15.30
2022-10-03T09:47:28.018Z,15.45
2022-10-03T09:50:41.101Z,16.36
2022-10-03T09:53:30.075Z,17.53
2022-10-03T09:56:01.627Z,16.95
2022-10-03T09:59:06.009Z,16.36
2022-10-03T10:02:20.624Z,15.78
2022-10-03T10:05:26.432Z,15.74
2022-10-03T10:08:30.734Z,15.74
2022-10-03T10:11:15.652Z,16.72
2022-10-03T10:14:19.269Z,16.30
2022-10-03T10:17:23.566Z,15.96
2022-10-03T10:20:18.772Z,16.17
2022-10-03T10:22:57.480Z,15.99
2022-10-03T10:25:48.544Z,15.80
2022-10-03T10:28:22.849Z,15.46
2022-10-03T10:31:14.370Z,15.66
2022-10-03T10:34:26.811Z,16.45
2022-10-03T10:37:33.055Z,16.02
2022-10-03T10:40:21.873Z,16.05
2022-10-03T10:43:16.814Z,16.28
2022-10-03T10:46:05.769Z,17.07
2022-10-03T10:49:21.000Z,16.62
2022-10-03T10:52:19.805Z,17.73
2022-10-03T10:55:25.186Z,18.48
2022-10-03T10:58:04.034Z,17.72
2022-10-03T11:00:42.617Z,18.47
2022-10-03T11:03:12.418Z,19.15
2022-10-03T11:06:18.946Z,19.81
2022-10-03T11:09:23.298Z,20.20
2022-10-03T11:12:14.052Z,19.98
2022-10-03T11:15:05.451Z,19.89
2022-10-03T11:17:48.403Z,19.89
2022-10-03T11:20:54.751Z,18.34
2022-10-03T11:23:44.762Z,18.33
2022-10-03T11:26:23.675Z,17.31
2022-10-03T11:28:56.448Z,16.93
2022-10-03T11:32:12.023Z,16.85
2022-10-03T11:34:47.771Z,16.62
2022-10-03T11:37:30.308Z,16.28
2022-10-03T11:40:09.099Z,16.10
2022-10-03T11:42:39.831Z,16.06
2022-10-03T11:45:20.480Z,17.13
2022-10-03T11:48:19.486Z,17.74
2022-10-03T11:51:08.799Z,17.63
2022-10-03T11:54:13.017Z,17.24
2022-10-03T11:57:02.951Z,16.84
2022-10-03T11:59:35.748Z,16.70
2022-10-03T12:02:14.583Z,17.60
2022-10-03T12:05:12.900Z,17.81
2022-10-03T12:08:04.067Z,17.15
2022-10-03T12:10:59.350Z,17.00
2022-10-03T12:13:34.883Z,16.86
2022-10-03T12:16:02.949Z,16.50
2022-10-03T12:18:50.440Z,16.41
2022-10-03T12:21:39.457Z,16.48
2022-10-03T12:24:26.601Z,16.32
2022-10-03T12:27:03.715Z,16.82
2022-10-03T12:29:34.728Z,16.90
2022-10-03T12:32:25.007Z,16.67
2022-10-03T12:35:20.096Z,16.62
2022-10-03T12:38:01.645Z,16.24
2022-10-03T12:40:40.619Z,16.13
2022-10-03T12:43:19.351Z,16.12
2022-10-03T12:46:02.147Z,16.16
2022-10-03T12:48:43.956Z,16.26
2022-10-03T12:51:17.094Z,16.77
2022-10-03T12:54:09.026Z,16.77
2022-10-03T12:56:49.605Z,16.71
2022-10-03T12:59:23.701Z,16.46
2022-10-03T13:02:12.475Z,16.51
2022-10-03T13:05:18.260Z,16.57
2022-10-03T13:08:02.677Z,16.25
2022-10-03T13:11:10.774Z,16.26
2022-10-03T13:14:01.923Z,16.02
2022-10-03T13:16:34.674Z,16.08
2022-10-03T13:19:17.536Z,16.16
2022-10-03T13:21:46.494Z,16.16
2022-10-03T13:24:41.942Z,16.04
2022-10-03T13:27:29.188Z,15.95
2022-10-03T13:30:21.687Z,15.92
2022-10-03T13:33:09.996Z,15.96
2022-10-03T13:35:58.922Z,16.20
2022-10-03T13:38:28.669Z,16.24
2022-10-03T13:41:05.285Z,16.18
2022-10-03T13:43:37.774Z,16.29
2022-10-03T13:46:20.026Z,16.34
2022-10-03T13:49:10.814Z,16.51
2022-10-03T13:51:49.990Z,16.87
2022-10-03T13:54:55.502Z,16.59
2022-10-03T13:57:33.039Z,16.50
2022-10-03T14:00:10.942Z,16.54
2022-10-03T14:03:22.719Z,16.56
2022-10-03T14:06:05.437Z,16.95
2022-10-03T14:09:12.912Z,17.46
2022-10-03T14:12:14.146Z,17.08
2022-10-03T14:15:18.590Z,17.80
2022-10-03T14:18:19.804Z,18.44
2022-10-03T14:21:14.331Z,18.27
2022-10-03T14:23:53.164Z,18.44
2022-10-03T14:26:25.006Z,18.44
2022-10-03T14:28:51.668Z,17.96
2022-10-03T14:31:41.688Z,18.11
2022-10-03T14:34:34.070Z,18.26
2022-10-03T14:37:35.826Z,18.20
2022-10-03T14:40:28.062Z,18.00
2022-10-03T14:43:22.461Z,17.70
2022-10-03T14:45:55.645Z,17.51
2022-10-03T14:48:34.302Z,17.28
2022-10-03T14:51:08.578Z,17.19
2022-10-03T14:53:37.327Z,17.23
2022-10-03T14:56:07.872Z,16.78
2022-10-03T14:58:43.845Z,16.72
2022-10-03T15:01:19.313Z,16.59
2022-10-03T15:04:01.431Z,16.41
2022-10-03T15:06:53.633Z,16.35
2022-10-03T15:09:42.526Z,16.16
2022-10-03T15:12:28.383Z,16.12
2022-10-03T15:15:02.266Z,15.91
2022-10-03T15:17:33.372Z,15.95
2022-10-03T15:20:01.938Z,15.83
2022-10-03T15:22:28.850Z,16.00
2022-10-03T15:25:01.444Z,15.71
2022-10-03T15:27:28.651Z,15.71
2022-10-03T15:29:58.334Z,15.69
2022-10-03T15:32:32.728Z,15.68
2022-10-03T15:35:02.177Z,15.66
2022-10-03T15:37:35.276Z,15.74
2022-10-03T15:40:07.924Z,15.62
2022-10-03T15:42:47.286Z,15.52
2022-10-03T15:45:27.560Z,15.46
2022-10-03T15:47:58.470Z,15.46
2022-10-03T15:50:33.538Z,15.46
2022-10-03T15:53:36.087Z,15.36
2022-10-03T15:56:17.808Z,15.30
2022-10-03T15:58:58.315Z,15.25
2022-10-03T16:01:41.095Z,15.08
2022-10-03T16:04:22.185Z,14.95
2022-10-03T16:06:54.989Z,15.06
2022-10-03T16:09:40.979Z,15.07
2022-10-03T16:12:16.670Z,15.07
2022-10-03T16:14:49.034Z,15.08
2022-10-03T16:17:33.174Z,14.98
2022-10-03T16:20:23.607Z,15.01
2022-10-03T16:22:52.937Z,14.99
2022-10-03T16:25:24.364Z,15.04
2022-10-03T16:28:07.993Z,14.96
2022-10-03T16:30:44.272Z,14.89
2022-10-03T16:33:38.640Z,14.91
2022-10-03T16:36:09.663Z,14.79
2022-10-03T16:38:39.059Z,14.71
2022-10-03T16:41:28.422Z,14.67
2022-10-03T16:44:01.531Z,14.59
2022-10-03T16:46:35.792Z,14.55
2022-10-03T16:49:29.620Z,14.48
2022-10-03T16:52:09.951Z,14.52
2022-10-03T16:54:37.231Z,14.50
2022-10-03T16:57:11.883Z,14.42
2022-10-03T16:59:42.074Z,14.39
2022-10-03T17:02:15.589Z,14.52
2022-10-03T17:04:47.539Z,14.44
2022-10-03T17:07:29.024Z,14.41
2022-10-03T17:10:02.759Z,14.41
2022-10-03T17:12:37.379Z,14.49
2022-10-03T17:15:10.089Z,14.51
2022-10-03T17:17:50.472Z,14.43
2022-10-03T17:20:27.668Z,14.44
2022-10-03T17:23:12.438Z,14.45
2022-10-03T17:26:17.394Z,14.50
2022-10-03T17:29:11.265Z,14.48
2022-10-03T17:31:49.283Z,14.45
2022-10-03T17:34:29.014Z,14.41
2022-10-03T17:37:07.800Z,14.48
2022-10-03T17:39:39.939Z,14.47
2022-10-03T17:42:31.491Z,14.50
2022-10-03T17:45:26.148Z,14.44
2022-10-03T17:48:19.952Z,14.50
2022-10-03T17:51:25.509Z,14.49
2022-10-03T17:53:57.886Z,14.49
2022-10-03T17:56:27.462Z,14.48
2022-10-03T17:59:02.911Z,14.47
2022-10-03T18:01:36.950Z,14.42
2022-10-03T18:04:08.351Z,14.48
2022-10-03T18:06:50.355Z,14.54
2022-10-03T18:09:25.811Z,14.54
2022-10-03T18:11:59.991Z,14.53
2022-10-03T18:14:42.093Z,14.45
2022-10-03T18:17:59.520Z,14.53
2022-10-03T18:20:42.009Z,14.57
2022-10-03T18:23:23.365Z,14.53
2022-10-03T18:26:20.074Z,14.53
2022-10-03T18:29:19.354Z,14.49
2022-10-03T18:31:58.927Z,14.49
2022-10-03T18:34:59.196Z,14.51
2022-10-03T18:37:26.021Z,14.40
2022-10-03T18:39:56.077Z,14.51
2022-10-03T18:42:27.841Z,14.65
2022-10-03T18:44:57.796Z,14.59
2022-10-03T18:47:37.983Z,14.54
2022-10-03T18:50:32.288Z,14.55
2022-10-03T18:53:16.537Z,14.47
2022-10-03T18:55:53.117Z,14.48
2022-10-03T18:58:32.891Z,14.51
2022-10-03T19:01:20.927Z,14.64
2022-10-03T19:03:59.106Z,14.65
2022-10-03T19:06:35.722Z,14.79
2022-10-03T19:09:15.924Z,14.58
2022-10-03T19:11:50.233Z,14.53
2022-10-03T19:14:28.930Z,14.54
2022-10-03T19:17:04.448Z,14.56
2022-10-03T19:19:49.467Z,14.62
2022-10-03T19:22:21.390Z,14.55
2022-10-03T19:24:59.159Z,14.52
2022-10-03T19:27:49.013Z,14.57
2022-10-03T19:30:25.137Z,14.54
2022-10-03T19:32:58.308Z,14.59
2022-10-03T19:35:26.045Z,14.59
2022-10-03T19:37:56.027Z,14.49
2022-10-03T19:40:43.711Z,14.50
2022-10-03T19:43:31.776Z,14.50
2022-10-03T19:46:26.556Z,14.52
2022-10-03T19:49:23.929Z,14.42
2022-10-03T19:51:51.652Z,14.47
2022-10-03T19:54:35.022Z,14.47
2022-10-03T19:57:04.145Z,14.43
2022-10-03T19:59:46.887Z,14.44
2022-10-03T20:02:13.757Z,14.49
2022-10-03T20:04:41.007Z,14.54
2022-10-03T20:07:17.382Z,14.43
2022-10-03T20:10:00.350Z,14.43
2022-10-03T20:12:30.588Z,14.41
2022-10-03T20:15:17.237Z,14.32
2022-10-03T20:17:44.849Z,14.27
2022-10-03T20:20:19.470Z,14.36
2022-10-03T20:22:46.304Z,14.34
2022-10-03T20:25:31.107Z,14.29
2022-10-03T20:28:02.957Z,14.24
2022-10-03T20:30:49.108Z,14.14
2022-10-03T20:33:29.893Z,14.09
2022-10-03T20:35:59.430Z,14.20
2022-10-03T20:38:59.586Z,14.06
2022-10-03T20:41:37.261Z,14.08
2022-10-03T20:44:22.892Z,14.08
2022-10-03T20:46:51.989Z,14.04
2022-10-03T20:49:26.317Z,14.11
2022-10-03T20:51:53.513Z,14.12
2022-10-03T20:54:23.692Z,14.19
2022-10-03T20:57:15.596Z,14.13
2022-10-03T20:59:45.735Z,14.13
2022-10-03T21:02:40.643Z,14.10
2022-10-03T21:05:31.664Z,14.11
2022-10-03T21:08:12.498Z,14.11
2022-10-03T21:10:54.801Z,14.08
2022-10-03T21:13:25.164Z,14.03
2022-10-03T21:15:57.066Z,14.00
2022-10-03T21:18:26.032Z,13.92
2022-10-03T21:21:19.921Z,14.00
2022-10-03T21:23:54.976Z,14.05
2022-10-03T21:26:29.491Z,14.01
2022-10-03T21:29:28.852Z,13.91
2022-10-03T21:31:58.618Z,13.90
2022-10-03T21:34:46.014Z,13.94
2022-10-03T21:37:22.912Z,13.89
2022-10-03T21:40:12.988Z,13.84
2022-10-03T21:42:56.651Z,13.85
2022-10-03T21:45:40.544Z,13.84
2022-10-03T21:48:21.764Z,13.91
2022-10-03T21:50:56.949Z,13.81
2022-10-03T21:53:23.603Z,13.80
2022-10-03T21:55:53.542Z,13.78
2022-10-03T21:58:55.823Z,13.76
2022-10-03T22:01:55.023Z,13.76
2022-10-03T22:04:42.430Z,13.75
2022-10-03T22:07:16.442Z,13.76
2022-10-03T22:09:49.030Z,13.75
2022-10-03T22:12:17.991Z,13.76
2022-10-03T22:14:55.710Z,13.78
2022-10-03T22:17:35.101Z,13.78
2022-10-03T22:20:20.033Z,13.84
2022-10-03T22:23:02.828Z,13.74
2022-10-03T22:25:50.593Z,13.73
2022-10-03T22:28:42.164Z,13.74
2022-10-03T22:31:20.862Z,13.73
2022-10-03T22:33:54.895Z,13.74
2022-10-03T22:36:22.136Z,13.63
2022-10-03T22:38:51.291Z,13.68
2022-10-03T22:41:24.406Z,13.60
2022-10-03T22:43:53.506Z,13.56
2022-10-03T22:46:26.037Z,13.62
2022-10-03T22:49:26.736Z,13.68
2022-10-03T22:51:56.749Z,13.55
2022-10-03T22:54:32.604Z,13.54
2022-10-03T22:57:06.047Z,13.62
2022-10-03T22:59:39.780Z,13.53
2022-10-03T23:02:09.277Z,13.44
2022-10-03T23:04:49.989Z,13.40
2022-10-03T23:07:31.169Z,13.32
2022-10-03T23:10:06.756Z,13.31
2022-10-03T23:12:44.809Z,13.41
2022-10-03T23:15:16.018Z,13.43
2022-10-03T23:17:45.840Z,13.47
2022-10-03T23:20:41.125Z,13.39
2022-10-03T23:23:34.314Z,13.44
2022-10-03T23:26:28.156Z,13.51
2022-10-03T23:29:05.896Z,13.49
2022-10-03T23:31:55.330Z,13.44
2022-10-03T23:34:43.629Z,13.38
2022-10-03T23:37:13.278Z,13.39
2022-10-03T23:39:41.147Z,13.43
2022-10-03T23:42:23.933Z,13.46
2022-10-03T23:44:55.436Z,13.47
2022-10-03T23:47:48.771Z,13.46
2022-10-03T23:50:22.094Z,13.44
2022-10-03T23:52:56.593Z,13.48
2022-10-03T23:55:27.663Z,13.45
2022-10-03T23:57:55.086Z,13.46
